sensor_id;sensor_type;location;lat;lon;timestamp;temperature;humidity
68511;SHT31;55512;50.102;19.958;2024-01-16T00:01:22;0.64;80.24
68511;SHT31;55512;50.102;19.958;2024-01-16T00:03:51;0.65;80.15
68511;SHT31;55512;50.102;19.958;2024-01-16T00:06:26;0.66;79.97
68511;SHT31;55512;50.102;19.958;2024-01-16T00:08:55;0.67;79.76
68511;SHT31;55512;50.102;19.958;2024-01-16T00:11:23;0.69;79.57
68511;SHT31;55512;50.102;19.958;2024-01-16T00:13:49;0.70;79.82
68511;SHT31;55512;50.102;19.958;2024-01-16T00:16:15;0.71;80.33
68511;SHT31;55512;50.102;19.958;2024-01-16T00:18:44;0.69;80.42
68511;SHT31;55512;50.102;19.958;2024-01-16T00:21:12;0.69;80.42
68511;SHT31;55512;50.102;19.958;2024-01-16T00:27:00;0.69;81.29
68511;SHT31;55512;50.102;19.958;2024-01-16T00:29:59;0.69;81.42
68511;SHT31;55512;50.102;19.958;2024-01-16T00:32:33;0.70;81.45
68511;SHT31;55512;50.102;19.958;2024-01-16T00:42:02;0.61;82.42
68511;SHT31;55512;50.102;19.958;2024-01-16T00:45:07;0.60;82.58
68511;SHT31;55512;50.102;19.958;2024-01-16T00:47:33;0.60;82.52
68511;SHT31;55512;50.102;19.958;2024-01-16T00:50:09;0.79;82.07
68511;SHT31;55512;50.102;19.958;2024-01-16T00:52:38;0.92;81.61
68511;SHT31;55512;50.102;19.958;2024-01-16T00:58:01;0.86;81.42
68511;SHT31;55512;50.102;19.958;2024-01-16T01:00:27;0.86;81.18
68511;SHT31;55512;50.102;19.958;2024-01-16T01:02:55;0.66;81.65
68511;SHT31;55512;50.102;19.958;2024-01-16T01:05:22;0.63;81.60
68511;SHT31;55512;50.102;19.958;2024-01-16T01:07:53;0.62;81.60
68511;SHT31;55512;50.102;19.958;2024-01-16T01:10:23;0.58;81.66
68511;SHT31;55512;50.102;19.958;2024-01-16T01:12:59;0.60;81.82
68511;SHT31;55512;50.102;19.958;2024-01-16T01:15:31;0.60;81.90
68511;SHT31;55512;50.102;19.958;2024-01-16T01:17:59;0.61;81.90
68511;SHT31;55512;50.102;19.958;2024-01-16T01:20:48;0.60;81.73
68511;SHT31;55512;50.102;19.958;2024-01-16T01:23:17;0.60;81.62
68511;SHT31;55512;50.102;19.958;2024-01-16T01:29:06;0.67;81.23
68511;SHT31;55512;50.102;19.958;2024-01-16T01:31:37;0.69;80.99
68511;SHT31;55512;50.102;19.958;2024-01-16T01:34:03;0.70;80.81
68511;SHT31;55512;50.102;19.958;2024-01-16T01:36:29;0.69;80.76
68511;SHT31;55512;50.102;19.958;2024-01-16T01:38:55;0.85;80.50
68511;SHT31;55512;50.102;19.958;2024-01-16T01:41:21;1.04;79.99
68511;SHT31;55512;50.102;19.958;2024-01-16T01:43:47;1.09;79.91
68511;SHT31;55512;50.102;19.958;2024-01-16T01:46:15;1.09;80.63
68511;SHT31;55512;50.102;19.958;2024-01-16T01:48:43;1.09;80.29
68511;SHT31;55512;50.102;19.958;2024-01-16T01:51:14;1.10;79.99
68511;SHT31;55512;50.102;19.958;2024-01-16T01:53:44;1.09;79.78
68511;SHT31;55512;50.102;19.958;2024-01-16T01:56:14;1.07;79.59
68511;SHT31;55512;50.102;19.958;2024-01-16T01:58:46;1.07;79.79
68511;SHT31;55512;50.102;19.958;2024-01-16T02:01:15;1.08;80.03
68511;SHT31;55512;50.102;19.958;2024-01-16T02:03:49;1.07;80.12
68511;SHT31;55512;50.102;19.958;2024-01-16T02:06:17;0.81;80.96
68511;SHT31;55512;50.102;19.958;2024-01-16T02:08:46;0.76;81.15
68511;SHT31;55512;50.102;19.958;2024-01-16T02:11:12;0.73;81.07
68511;SHT31;55512;50.102;19.958;2024-01-16T02:13:43;0.71;80.93
68511;SHT31;55512;50.102;19.958;2024-01-16T02:16:22;0.72;80.77
68511;SHT31;55512;50.102;19.958;2024-01-16T02:18:54;0.70;80.51
68511;SHT31;55512;50.102;19.958;2024-01-16T02:21:21;0.68;80.31
68511;SHT31;55512;50.102;19.958;2024-01-16T02:23:50;0.65;80.10
68511;SHT31;55512;50.102;19.958;2024-01-16T02:26:17;0.68;79.90
68511;SHT31;55512;50.102;19.958;2024-01-16T02:28:49;0.68;79.79
68511;SHT31;55512;50.102;19.958;2024-01-16T02:31:14;0.91;79.06
68511;SHT31;55512;50.102;19.958;2024-01-16T02:33:41;0.98;78.59
68511;SHT31;55512;50.102;19.958;2024-01-16T02:36:10;0.97;78.14
68511;SHT31;55512;50.102;19.958;2024-01-16T02:38:39;0.99;77.91
68511;SHT31;55512;50.102;19.958;2024-01-16T02:41:07;0.96;77.68
68511;SHT31;55512;50.102;19.958;2024-01-16T02:43:38;0.94;77.51
68511;SHT31;55512;50.102;19.958;2024-01-16T02:46:04;0.93;77.27
68511;SHT31;55512;50.102;19.958;2024-01-16T02:48:34;0.91;77.04
68511;SHT31;55512;50.102;19.958;2024-01-16T02:51:01;0.93;76.81
68511;SHT31;55512;50.102;19.958;2024-01-16T02:53:29;0.95;76.61
68511;SHT31;55512;50.102;19.958;2024-01-16T02:55:56;0.99;76.50
68511;SHT31;55512;50.102;19.958;2024-01-16T02:58:26;1.00;76.31
68511;SHT31;55512;50.102;19.958;2024-01-16T03:00:56;1.04;76.14
68511;SHT31;55512;50.102;19.958;2024-01-16T03:03:22;1.06;76.03
68511;SHT31;55512;50.102;19.958;2024-01-16T03:05:51;1.08;75.94
68511;SHT31;55512;50.102;19.958;2024-01-16T03:08:20;1.10;75.91
68511;SHT31;55512;50.102;19.958;2024-01-16T03:10:51;1.08;75.84
68511;SHT31;55512;50.102;19.958;2024-01-16T03:13:17;1.06;75.70
68511;SHT31;55512;50.102;19.958;2024-01-16T03:15:43;1.04;75.72
68511;SHT31;55512;50.102;19.958;2024-01-16T03:18:12;1.05;75.77
68511;SHT31;55512;50.102;19.958;2024-01-16T03:20:38;1.06;75.67
68511;SHT31;55512;50.102;19.958;2024-01-16T03:23:04;1.08;75.53
68511;SHT31;55512;50.102;19.958;2024-01-16T03:25:32;1.10;75.34
68511;SHT31;55512;50.102;19.958;2024-01-16T03:28:03;1.13;75.05
68511;SHT31;55512;50.102;19.958;2024-01-16T03:30:33;1.17;74.88
68511;SHT31;55512;50.102;19.958;2024-01-16T03:32:59;1.20;74.69
68511;SHT31;55512;50.102;19.958;2024-01-16T03:35:24;1.22;74.51
68511;SHT31;55512;50.102;19.958;2024-01-16T03:37:53;1.23;74.20
68511;SHT31;55512;50.102;19.958;2024-01-16T03:40:19;1.27;73.99
68511;SHT31;55512;50.102;19.958;2024-01-16T03:42:48;1.27;73.86
68511;SHT31;55512;50.102;19.958;2024-01-16T03:45:16;1.30;73.61
68511;SHT31;55512;50.102;19.958;2024-01-16T03:47:42;1.33;73.43
68511;SHT31;55512;50.102;19.958;2024-01-16T03:50:08;1.37;73.32
68511;SHT31;55512;50.102;19.958;2024-01-16T03:52:34;1.40;73.11
68511;SHT31;55512;50.102;19.958;2024-01-16T03:55:00;1.40;73.21
68511;SHT31;55512;50.102;19.958;2024-01-16T03:57:29;1.43;73.89
68511;SHT31;55512;50.102;19.958;2024-01-16T04:00:22;1.42;73.87
68511;SHT31;55512;50.102;19.958;2024-01-16T04:03:01;1.42;74.20
68511;SHT31;55512;50.102;19.958;2024-01-16T04:05:38;1.40;75.72
68511;SHT31;55512;50.102;19.958;2024-01-16T04:08:04;1.33;77.93
68511;SHT31;55512;50.102;19.958;2024-01-16T04:10:30;1.25;79.25
68511;SHT31;55512;50.102;19.958;2024-01-16T04:12:58;1.20;79.98
68511;SHT31;55512;50.102;19.958;2024-01-16T04:15:26;1.13;80.54
68511;SHT31;55512;50.102;19.958;2024-01-16T04:17:53;1.09;81.12
68511;SHT31;55512;50.102;19.958;2024-01-16T04:20:20;1.06;81.32
68511;SHT31;55512;50.102;19.958;2024-01-16T04:22:53;1.05;81.55
68511;SHT31;55512;50.102;19.958;2024-01-16T04:25:19;1.05;81.51
68511;SHT31;55512;50.102;19.958;2024-01-16T04:27:44;1.04;81.60
68511;SHT31;55512;50.102;19.958;2024-01-16T04:30:11;1.01;82.05
68511;SHT31;55512;50.102;19.958;2024-01-16T04:32:37;1.01;82.19
68511;SHT31;55512;50.102;19.958;2024-01-16T04:35:06;0.99;82.09
68511;SHT31;55512;50.102;19.958;2024-01-16T04:37:33;0.74;82.77
68511;SHT31;55512;50.102;19.958;2024-01-16T04:39:59;0.71;83.09
68511;SHT31;55512;50.102;19.958;2024-01-16T04:42:25;0.70;83.34
68511;SHT31;55512;50.102;19.958;2024-01-16T04:44:53;0.69;83.61
68511;SHT31;55512;50.102;19.958;2024-01-16T04:47:19;0.69;83.72
68511;SHT31;55512;50.102;19.958;2024-01-16T04:49:45;0.72;83.81
68511;SHT31;55512;50.102;19.958;2024-01-16T04:52:13;0.71;83.76
68511;SHT31;55512;50.102;19.958;2024-01-16T04:54:39;0.73;83.72
68511;SHT31;55512;50.102;19.958;2024-01-16T04:57:05;0.72;83.45
68511;SHT31;55512;50.102;19.958;2024-01-16T04:59:40;0.76;83.56
68511;SHT31;55512;50.102;19.958;2024-01-16T05:02:07;0.77;83.52
68511;SHT31;55512;50.102;19.958;2024-01-16T05:04:52;0.79;83.54
68511;SHT31;55512;50.102;19.958;2024-01-16T05:07:25;0.79;83.22
68511;SHT31;55512;50.102;19.958;2024-01-16T05:10:24;0.81;82.81
68511;SHT31;55512;50.102;19.958;2024-01-16T05:12:52;0.86;82.80
68511;SHT31;55512;50.102;19.958;2024-01-16T05:15:42;0.87;82.57
68511;SHT31;55512;50.102;19.958;2024-01-16T05:18:09;0.90;82.41
68511;SHT31;55512;50.102;19.958;2024-01-16T05:20:35;0.91;83.77
68511;SHT31;55512;50.102;19.958;2024-01-16T05:23:01;0.93;84.39
68511;SHT31;55512;50.102;19.958;2024-01-16T05:25:27;0.92;84.54
68511;SHT31;55512;50.102;19.958;2024-01-16T05:27:55;0.87;84.68
68511;SHT31;55512;50.102;19.958;2024-01-16T05:30:24;0.75;84.41
68511;SHT31;55512;50.102;19.958;2024-01-16T05:33:01;0.68;83.96
68511;SHT31;55512;50.102;19.958;2024-01-16T05:35:28;0.59;83.78
68511;SHT31;55512;50.102;19.958;2024-01-16T05:37:54;0.54;83.74
68511;SHT31;55512;50.102;19.958;2024-01-16T05:40:25;0.52;83.68
68511;SHT31;55512;50.102;19.958;2024-01-16T05:42:54;0.53;83.72
68511;SHT31;55512;50.102;19.958;2024-01-16T05:45:27;0.48;83.41
68511;SHT31;55512;50.102;19.958;2024-01-16T05:47:56;0.47;83.35
68511;SHT31;55512;50.102;19.958;2024-01-16T05:50:22;0.44;82.94
68511;SHT31;55512;50.102;19.958;2024-01-16T05:52:51;0.45;83.02
68511;SHT31;55512;50.102;19.958;2024-01-16T05:55:17;0.45;82.99
68511;SHT31;55512;50.102;19.958;2024-01-16T05:57:49;0.47;82.76
68511;SHT31;55512;50.102;19.958;2024-01-16T06:00:17;0.47;82.36
68511;SHT31;55512;50.102;19.958;2024-01-16T06:02:48;0.51;82.36
68511;SHT31;55512;50.102;19.958;2024-01-16T06:05:14;0.54;82.48
68511;SHT31;55512;50.102;19.958;2024-01-16T06:07:39;0.56;82.38
68511;SHT31;55512;50.102;19.958;2024-01-16T06:10:05;0.57;82.00
68511;SHT31;55512;50.102;19.958;2024-01-16T06:12:40;0.58;81.72
68511;SHT31;55512;50.102;19.958;2024-01-16T06:15:06;0.56;80.77
68511;SHT31;55512;50.102;19.958;2024-01-16T06:17:33;0.54;79.73
68511;SHT31;55512;50.102;19.958;2024-01-16T06:19:59;0.51;79.72
68511;SHT31;55512;50.102;19.958;2024-01-16T06:22:29;0.48;80.22
68511;SHT31;55512;50.102;19.958;2024-01-16T06:24:55;0.45;80.86
68511;SHT31;55512;50.102;19.958;2024-01-16T06:27:21;0.41;81.78
68511;SHT31;55512;50.102;19.958;2024-01-16T06:29:58;0.31;82.26
68511;SHT31;55512;50.102;19.958;2024-01-16T06:32:26;0.23;82.42
68511;SHT31;55512;50.102;19.958;2024-01-16T06:34:54;0.18;82.62
68511;SHT31;55512;50.102;19.958;2024-01-16T06:37:20;0.17;82.93
68511;SHT31;55512;50.102;19.958;2024-01-16T06:39:46;0.16;83.02
68511;SHT31;55512;50.102;19.958;2024-01-16T06:42:15;0.15;83.14
68511;SHT31;55512;50.102;19.958;2024-01-16T06:44:40;0.15;83.15
68511;SHT31;55512;50.102;19.958;2024-01-16T06:47:17;0.15;83.12
68511;SHT31;55512;50.102;19.958;2024-01-16T06:49:57;0.15;83.26
68511;SHT31;55512;50.102;19.958;2024-01-16T06:52:23;0.15;83.33
68511;SHT31;55512;50.102;19.958;2024-01-16T06:55:00;0.18;83.40
68511;SHT31;55512;50.102;19.958;2024-01-16T06:57:28;0.20;83.47
68511;SHT31;55512;50.102;19.958;2024-01-16T07:00:06;0.23;83.61
68511;SHT31;55512;50.102;19.958;2024-01-16T07:02:39;0.23;83.56
68511;SHT31;55512;50.102;19.958;2024-01-16T07:05:08;0.18;83.17
68511;SHT31;55512;50.102;19.958;2024-01-16T07:07:37;0.17;83.16
68511;SHT31;55512;50.102;19.958;2024-01-16T07:10:13;0.17;83.17
68511;SHT31;55512;50.102;19.958;2024-01-16T07:12:43;0.19;83.25
68511;SHT31;55512;50.102;19.958;2024-01-16T07:15:10;0.23;83.30
68511;SHT31;55512;50.102;19.958;2024-01-16T07:17:40;0.27;83.32
68511;SHT31;55512;50.102;19.958;2024-01-16T07:20:06;0.25;83.18
68511;SHT31;55512;50.102;19.958;2024-01-16T07:22:38;0.26;83.21
68511;SHT31;55512;50.102;19.958;2024-01-16T07:25:10;0.25;83.14
68511;SHT31;55512;50.102;19.958;2024-01-16T07:27:36;0.25;83.15
68511;SHT31;55512;50.102;19.958;2024-01-16T07:30:06;0.27;83.19
68511;SHT31;55512;50.102;19.958;2024-01-16T07:32:50;0.28;83.19
68511;SHT31;55512;50.102;19.958;2024-01-16T07:35:24;0.29;83.19
68511;SHT31;55512;50.102;19.958;2024-01-16T07:37:58;0.31;83.14
68511;SHT31;55512;50.102;19.958;2024-01-16T07:40:24;0.34;83.16
68511;SHT31;55512;50.102;19.958;2024-01-16T07:42:55;0.38;83.20
68511;SHT31;55512;50.102;19.958;2024-01-16T07:45:20;0.43;83.19
68511;SHT31;55512;50.102;19.958;2024-01-16T07:47:49;0.46;83.11
68511;SHT31;55512;50.102;19.958;2024-01-16T07:50:17;0.51;83.10
68511;SHT31;55512;50.102;19.958;2024-01-16T07:52:43;0.56;83.10
68511;SHT31;55512;50.102;19.958;2024-01-16T07:55:45;0.60;83.00
68511;SHT31;55512;50.102;19.958;2024-01-16T07:58:11;0.63;82.85
68511;SHT31;55512;50.102;19.958;2024-01-16T08:00:40;0.64;82.74
68511;SHT31;55512;50.102;19.958;2024-01-16T08:03:07;0.63;82.62
68511;SHT31;55512;50.102;19.958;2024-01-16T08:05:37;0.60;82.43
68511;SHT31;55512;50.102;19.958;2024-01-16T08:08:04;0.56;82.33
68511;SHT31;55512;50.102;19.958;2024-01-16T08:10:30;0.51;82.30
68511;SHT31;55512;50.102;19.958;2024-01-16T08:13:08;0.48;82.35
68511;SHT31;55512;50.102;19.958;2024-01-16T08:15:41;0.47;82.54
68511;SHT31;55512;50.102;19.958;2024-01-16T08:18:12;0.45;82.82
68511;SHT31;55512;50.102;19.958;2024-01-16T08:20:39;0.43;83.08
68511;SHT31;55512;50.102;19.958;2024-01-16T08:23:07;0.42;83.48
68511;SHT31;55512;50.102;19.958;2024-01-16T08:25:33;0.47;83.96
68511;SHT31;55512;50.102;19.958;2024-01-16T08:27:59;0.51;84.28
68511;SHT31;55512;50.102;19.958;2024-01-16T08:30:25;0.54;84.49
68511;SHT31;55512;50.102;19.958;2024-01-16T08:32:51;0.54;84.60
68511;SHT31;55512;50.102;19.958;2024-01-16T08:38:22;0.65;84.95
68511;SHT31;55512;50.102;19.958;2024-01-16T08:40:51;0.70;85.02
68511;SHT31;55512;50.102;19.958;2024-01-16T08:43:17;0.79;85.17
68511;SHT31;55512;50.102;19.958;2024-01-16T08:45:46;0.88;85.16
68511;SHT31;55512;50.102;19.958;2024-01-16T08:48:13;1.03;85.14
68511;SHT31;55512;50.102;19.958;2024-01-16T08:50:40;1.29;85.17
68511;SHT31;55512;50.102;19.958;2024-01-16T08:53:06;1.53;85.09
68511;SHT31;55512;50.102;19.958;2024-01-16T08:55:32;1.69;84.65
68511;SHT31;55512;50.102;19.958;2024-01-16T08:57:58;1.80;83.78
68511;SHT31;55512;50.102;19.958;2024-01-16T09:00:23;1.91;83.61
68511;SHT31;55512;50.102;19.958;2024-01-16T09:02:52;1.95;82.98
68511;SHT31;55512;50.102;19.958;2024-01-16T09:05:28;1.95;82.41
68511;SHT31;55512;50.102;19.958;2024-01-16T09:07:53;2.00;82.23
68511;SHT31;55512;50.102;19.958;2024-01-16T09:10:19;2.06;81.92
68511;SHT31;55512;50.102;19.958;2024-01-16T09:12:48;2.14;81.49
68511;SHT31;55512;50.102;19.958;2024-01-16T09:15:14;2.15;80.54
68511;SHT31;55512;50.102;19.958;2024-01-16T09:20:28;2.27;79.63
68511;SHT31;55512;50.102;19.958;2024-01-16T09:23:41;2.19;79.80
68511;SHT31;55512;50.102;19.958;2024-01-16T09:26:10;2.24;79.07
68511;SHT31;55512;50.102;19.958;2024-01-16T09:28:38;2.26;78.58
68511;SHT31;55512;50.102;19.958;2024-01-16T09:31:05;2.36;77.52
68511;SHT31;55512;50.102;19.958;2024-01-16T09:33:34;2.41;76.84
68511;SHT31;55512;50.102;19.958;2024-01-16T09:36:06;2.53;75.28
68511;SHT31;55512;50.102;19.958;2024-01-16T09:38:32;2.73;74.26
68511;SHT31;55512;50.102;19.958;2024-01-16T09:41:02;2.87;73.76
68511;SHT31;55512;50.102;19.958;2024-01-16T09:43:39;2.93;72.21
68511;SHT31;55512;50.102;19.958;2024-01-16T09:46:11;2.95;70.92
68511;SHT31;55512;50.102;19.958;2024-01-16T09:48:38;2.98;70.22
68511;SHT31;55512;50.102;19.958;2024-01-16T09:51:05;3.00;68.99
68511;SHT31;55512;50.102;19.958;2024-01-16T09:53:34;3.12;68.92
68511;SHT31;55512;50.102;19.958;2024-01-16T09:56:01;3.21;67.43
68511;SHT31;55512;50.102;19.958;2024-01-16T09:58:36;3.30;67.53
68511;SHT31;55512;50.102;19.958;2024-01-16T10:01:02;3.34;70.11
68511;SHT31;55512;50.102;19.958;2024-01-16T10:03:30;3.29;69.74
68511;SHT31;55512;50.102;19.958;2024-01-16T10:05:57;3.38;69.80
68511;SHT31;55512;50.102;19.958;2024-01-16T10:08:27;3.27;68.72
68511;SHT31;55512;50.102;19.958;2024-01-16T10:10:55;3.12;68.41
68511;SHT31;55512;50.102;19.958;2024-01-16T10:13:32;3.04;69.94
68511;SHT31;55512;50.102;19.958;2024-01-16T10:15:59;2.86;70.81
68511;SHT31;55512;50.102;19.958;2024-01-16T10:18:26;2.57;71.20
68511;SHT31;55512;50.102;19.958;2024-01-16T10:20:59;2.41;72.05
68511;SHT31;55512;50.102;19.958;2024-01-16T10:23:26;2.33;72.52
68511;SHT31;55512;50.102;19.958;2024-01-16T10:26:14;2.22;72.82
68511;SHT31;55512;50.102;19.958;2024-01-16T10:28:49;2.12;73.90
68511;SHT31;55512;50.102;19.958;2024-01-16T10:33:55;2.15;75.30
68511;SHT31;55512;50.102;19.958;2024-01-16T10:36:26;2.20;75.59
68511;SHT31;55512;50.102;19.958;2024-01-16T10:39:02;2.19;75.24
68511;SHT31;55512;50.102;19.958;2024-01-16T10:41:31;2.28;75.35
68511;SHT31;55512;50.102;19.958;2024-01-16T10:44:07;2.38;74.91
68511;SHT31;55512;50.102;19.958;2024-01-16T10:47:18;2.48;74.49
68511;SHT31;55512;50.102;19.958;2024-01-16T10:49:46;2.68;74.25
68511;SHT31;55512;50.102;19.958;2024-01-16T10:54:58;2.72;72.02
68511;SHT31;55512;50.102;19.958;2024-01-16T10:57:33;2.73;71.79
68511;SHT31;55512;50.102;19.958;2024-01-16T11:00:05;2.68;72.14
68511;SHT31;55512;50.102;19.958;2024-01-16T11:02:58;2.49;73.89
68511;SHT31;55512;50.102;19.958;2024-01-16T11:05:33;2.48;75.80
68511;SHT31;55512;50.102;19.958;2024-01-16T11:08:04;2.56;76.22
68511;SHT31;55512;50.102;19.958;2024-01-16T11:10:37;2.58;77.01
68511;SHT31;55512;50.102;19.958;2024-01-16T11:13:15;2.69;77.79
68511;SHT31;55512;50.102;19.958;2024-01-16T11:15:49;2.96;78.81
68511;SHT31;55512;50.102;19.958;2024-01-16T11:18:19;3.07;78.26
68511;SHT31;55512;50.102;19.958;2024-01-16T11:20:58;3.06;77.27
68511;SHT31;55512;50.102;19.958;2024-01-16T11:23:45;3.11;77.05
68511;SHT31;55512;50.102;19.958;2024-01-16T11:26:27;3.18;76.21
68511;SHT31;55512;50.102;19.958;2024-01-16T11:31:57;3.34;74.72
68511;SHT31;55512;50.102;19.958;2024-01-16T11:37:12;3.49;71.61
68511;SHT31;55512;50.102;19.958;2024-01-16T11:39:39;3.57;71.30
68511;SHT31;55512;50.102;19.958;2024-01-16T11:42:10;3.52;70.42
68511;SHT31;55512;50.102;19.958;2024-01-16T11:44:58;3.39;70.98
68511;SHT31;55512;50.102;19.958;2024-01-16T11:47:24;3.31;72.42
68511;SHT31;55512;50.102;19.958;2024-01-16T11:50:11;3.27;72.80
68511;SHT31;55512;50.102;19.958;2024-01-16T11:53:01;3.17;72.42
68511;SHT31;55512;50.102;19.958;2024-01-16T11:55:31;3.17;72.20
68511;SHT31;55512;50.102;19.958;2024-01-16T12:01:25;3.20;71.34
68511;SHT31;55512;50.102;19.958;2024-01-16T12:04:01;3.34;71.21
68511;SHT31;55512;50.102;19.958;2024-01-16T12:06:31;3.43;70.59
68511;SHT31;55512;50.102;19.958;2024-01-16T12:09:14;3.47;69.96
68511;SHT31;55512;50.102;19.958;2024-01-16T12:11:41;3.74;69.80
68511;SHT31;55512;50.102;19.958;2024-01-16T12:14:13;4.05;69.09
68511;SHT31;55512;50.102;19.958;2024-01-16T12:16:39;4.06;67.73
68511;SHT31;55512;50.102;19.958;2024-01-16T12:19:07;3.94;67.02
68511;SHT31;55512;50.102;19.958;2024-01-16T12:21:43;3.97;66.71
68511;SHT31;55512;50.102;19.958;2024-01-16T12:24:13;3.81;65.64
68511;SHT31;55512;50.102;19.958;2024-01-16T12:30:10;3.32;65.03
68511;SHT31;55512;50.102;19.958;2024-01-16T12:33:07;3.17;65.59
68511;SHT31;55512;50.102;19.958;2024-01-16T12:35:44;3.08;65.69
68511;SHT31;55512;50.102;19.958;2024-01-16T12:38:16;3.05;66.09
68511;SHT31;55512;50.102;19.958;2024-01-16T12:41:09;2.92;66.36
68511;SHT31;55512;50.102;19.958;2024-01-16T12:43:40;2.76;66.49
68511;SHT31;55512;50.102;19.958;2024-01-16T12:46:13;2.66;67.30
68511;SHT31;55512;50.102;19.958;2024-01-16T12:48:45;2.58;67.78
68511;SHT31;55512;50.102;19.958;2024-01-16T12:51:13;2.47;68.03
68511;SHT31;55512;50.102;19.958;2024-01-16T12:54:09;2.37;68.11
68511;SHT31;55512;50.102;19.958;2024-01-16T12:56:42;2.19;71.30
68511;SHT31;55512;50.102;19.958;2024-01-16T12:59:15;2.16;72.27
68511;SHT31;55512;50.102;19.958;2024-01-16T13:01:44;2.50;73.65
68511;SHT31;55512;50.102;19.958;2024-01-16T13:04:11;3.37;74.30
68511;SHT31;55512;50.102;19.958;2024-01-16T13:06:47;4.22;71.66
68511;SHT31;55512;50.102;19.958;2024-01-16T13:09:15;4.68;68.86
68511;SHT31;55512;50.102;19.958;2024-01-16T13:15:30;6.60;64.30
68511;SHT31;55512;50.102;19.958;2024-01-16T13:18:04;7.03;62.51
68511;SHT31;55512;50.102;19.958;2024-01-16T13:20:33;8.27;61.20
68511;SHT31;55512;50.102;19.958;2024-01-16T13:23:00;9.71;59.43
68511;SHT31;55512;50.102;19.958;2024-01-16T13:25:29;11.23;58.37
68511;SHT31;55512;50.102;19.958;2024-01-16T13:28:02;11.95;55.01
68511;SHT31;55512;50.102;19.958;2024-01-16T13:30:39;11.01;52.75
68511;SHT31;55512;50.102;19.958;2024-01-16T13:33:09;9.36;54.19
68511;SHT31;55512;50.102;19.958;2024-01-16T13:35:52;7.94;54.17
68511;SHT31;55512;50.102;19.958;2024-01-16T13:38:27;6.71;56.12
68511;SHT31;55512;50.102;19.958;2024-01-16T13:40:56;6.07;57.72
68511;SHT31;55512;50.102;19.958;2024-01-16T13:43:22;5.71;58.98
68511;SHT31;55512;50.102;19.958;2024-01-16T13:45:48;5.28;59.72
68511;SHT31;55512;50.102;19.958;2024-01-16T13:48:19;5.05;60.44
68511;SHT31;55512;50.102;19.958;2024-01-16T13:50:45;4.66;60.99
68511;SHT31;55512;50.102;19.958;2024-01-16T13:53:19;4.35;61.97
68511;SHT31;55512;50.102;19.958;2024-01-16T13:56:04;4.15;62.62
68511;SHT31;55512;50.102;19.958;2024-01-16T13:58:55;4.03;63.11
68511;SHT31;55512;50.102;19.958;2024-01-16T14:01:21;3.94;63.18
68511;SHT31;55512;50.102;19.958;2024-01-16T14:06:25;3.62;63.26
68511;SHT31;55512;50.102;19.958;2024-01-16T14:08:54;3.39;63.64
68511;SHT31;55512;50.102;19.958;2024-01-16T14:11:20;3.32;63.79
68511;SHT31;55512;50.102;19.958;2024-01-16T14:13:48;3.34;63.48
68511;SHT31;55512;50.102;19.958;2024-01-16T14:16:35;3.20;63.44
68511;SHT31;55512;50.102;19.958;2024-01-16T14:19:03;3.02;64.25
68511;SHT31;55512;50.102;19.958;2024-01-16T14:21:38;2.81;64.83
68511;SHT31;55512;50.102;19.958;2024-01-16T14:24:03;2.57;65.45
68511;SHT31;55512;50.102;19.958;2024-01-16T14:26:29;2.40;66.12
68511;SHT31;55512;50.102;19.958;2024-01-16T14:29:15;2.22;66.81
68511;SHT31;55512;50.102;19.958;2024-01-16T14:31:43;2.09;67.41
68511;SHT31;55512;50.102;19.958;2024-01-16T14:34:22;1.96;67.70
68511;SHT31;55512;50.102;19.958;2024-01-16T14:36:50;1.84;68.09
68511;SHT31;55512;50.102;19.958;2024-01-16T14:39:21;1.73;68.49
68511;SHT31;55512;50.102;19.958;2024-01-16T14:50:24;1.39;69.95
68511;SHT31;55512;50.102;19.958;2024-01-16T14:53:01;1.32;70.18
68511;SHT31;55512;50.102;19.958;2024-01-16T14:55:37;1.27;70.32
68511;SHT31;55512;50.102;19.958;2024-01-16T14:58:06;1.22;70.47
68511;SHT31;55512;50.102;19.958;2024-01-16T15:00:35;1.17;70.57
68511;SHT31;55512;50.102;19.958;2024-01-16T15:03:10;1.12;70.76
68511;SHT31;55512;50.102;19.958;2024-01-16T15:05:56;1.07;70.94
68511;SHT31;55512;50.102;19.958;2024-01-16T15:08:22;1.02;71.04
68511;SHT31;55512;50.102;19.958;2024-01-16T15:11:00;0.97;71.18
68511;SHT31;55512;50.102;19.958;2024-01-16T15:13:27;0.90;71.37
68511;SHT31;55512;50.102;19.958;2024-01-16T15:16:09;0.84;71.51
68511;SHT31;55512;50.102;19.958;2024-01-16T15:18:58;0.77;71.57
68511;SHT31;55512;50.102;19.958;2024-01-16T15:21:33;0.72;71.67
68511;SHT31;55512;50.102;19.958;2024-01-16T15:24:04;0.64;71.93
68511;SHT31;55512;50.102;19.958;2024-01-16T15:29:28;0.54;72.15
68511;SHT31;55512;50.102;19.958;2024-01-16T15:32:09;0.53;72.32
68511;SHT31;55512;50.102;19.958;2024-01-16T15:35:21;0.50;72.45
68511;SHT31;55512;50.102;19.958;2024-01-16T15:38:12;0.47;72.58
68511;SHT31;55512;50.102;19.958;2024-01-16T15:40:54;0.44;72.74
68511;SHT31;55512;50.102;19.958;2024-01-16T15:43:30;0.40;72.95
68511;SHT31;55512;50.102;19.958;2024-01-16T15:49:27;0.33;73.24
68511;SHT31;55512;50.102;19.958;2024-01-16T15:52:23;0.34;73.38
68511;SHT31;55512;50.102;19.958;2024-01-16T15:54:53;0.37;73.45
68511;SHT31;55512;50.102;19.958;2024-01-16T15:57:32;0.40;73.60
68511;SHT31;55512;50.102;19.958;2024-01-16T16:00:03;0.44;73.63
68511;SHT31;55512;50.102;19.958;2024-01-16T16:02:35;0.48;73.70
68511;SHT31;55512;50.102;19.958;2024-01-16T16:05:15;0.55;73.70
68511;SHT31;55512;50.102;19.958;2024-01-16T16:08:41;0.64;73.76
68511;SHT31;55512;50.102;19.958;2024-01-16T16:11:33;0.64;73.91
68511;SHT31;55512;50.102;19.958;2024-01-16T16:14:06;0.66;73.94
68511;SHT31;55512;50.102;19.958;2024-01-16T16:22:52;0.67;74.15
68511;SHT31;55512;50.102;19.958;2024-01-16T16:25:27;0.68;74.03
68511;SHT31;55512;50.102;19.958;2024-01-16T16:28:09;0.65;73.99
68511;SHT31;55512;50.102;19.958;2024-01-16T16:30:35;0.61;74.11
68511;SHT31;55512;50.102;19.958;2024-01-16T16:33:03;0.55;74.26
68511;SHT31;55512;50.102;19.958;2024-01-16T16:35:50;0.51;74.20
68511;SHT31;55512;50.102;19.958;2024-01-16T16:41:13;0.48;74.11
68511;SHT31;55512;50.102;19.958;2024-01-16T16:43:41;0.44;74.03
68511;SHT31;55512;50.102;19.958;2024-01-16T16:46:13;0.41;74.00
68511;SHT31;55512;50.102;19.958;2024-01-16T16:48:55;0.37;74.04
68511;SHT31;55512;50.102;19.958;2024-01-16T16:51:24;0.36;74.22
68511;SHT31;55512;50.102;19.958;2024-01-16T16:53:53;0.35;74.35
68511;SHT31;55512;50.102;19.958;2024-01-16T16:56:20;0.33;74.43
68511;SHT31;55512;50.102;19.958;2024-01-16T16:59:07;0.30;74.38
68511;SHT31;55512;50.102;19.958;2024-01-16T17:01:34;0.26;74.65
68511;SHT31;55512;50.102;19.958;2024-01-16T17:04:06;0.21;74.94
68511;SHT31;55512;50.102;19.958;2024-01-16T17:10:05;0.10;75.58
68511;SHT31;55512;50.102;19.958;2024-01-16T17:12:42;0.06;75.81